createdAt,value
2018-12-25T00:05:53.487Z,7.33
2018-12-25T00:11:59.395Z,7.20
2018-12-25T00:18:05.139Z,7.93
2018-12-25T00:24:10.794Z,6.87
2018-12-25T00:30:16.500Z,7.57
2018-12-25T00:36:22.417Z,7.40
2018-12-25T00:42:28.280Z,7.37
2018-12-25T00:48:34.005Z,7.47
2018-12-25T00:54:39.918Z,7.43
2018-12-25T01:00:45.730Z,7.47
2018-12-25T01:06:51.517Z,8.23
2018-12-25T01:12:57.343Z,8.13
2018-12-25T01:19:03.273Z,8.17
2018-12-25T01:25:09.422Z,7.83
2018-12-25T01:31:15.084Z,8.20
2018-12-25T01:37:20.774Z,7.30
2018-12-25T01:43:26.456Z,8.30
2018-12-25T01:49:32.214Z,8.13
2018-12-25T01:55:37.893Z,8.23
2018-12-25T02:01:43.592Z,8.67
2018-12-25T02:07:49.240Z,8.20
2018-12-25T02:13:54.895Z,7.83
2018-12-25T02:20:00.555Z,8.37
2018-12-25T02:26:06.871Z,8.37
2018-12-25T02:32:12.625Z,8.10
2018-12-25T02:38:18.539Z,8.27
2018-12-25T02:44:24.519Z,7.67
2018-12-25T02:50:30.406Z,7.63
2018-12-25T02:56:36.211Z,8.90
2018-12-25T03:02:42.059Z,8.10
2018-12-25T03:08:47.738Z,7.87
2018-12-25T03:14:53.476Z,8.30
2018-12-25T03:21:01.117Z,8.27
2018-12-25T03:27:06.829Z,8.03
2018-12-25T03:33:12.525Z,8.73
2018-12-25T03:39:18.446Z,8.27
2018-12-25T03:45:24.122Z,8.27
2018-12-25T03:51:29.899Z,8.23
2018-12-25T03:57:35.602Z,8.30
2018-12-25T04:03:41.262Z,8.17
2018-12-25T04:09:47.183Z,8.70
2018-12-25T04:15:52.938Z,8.47
2018-12-25T04:21:58.799Z,8.37
2018-12-25T04:28:04.499Z,8.47
2018-12-25T04:34:10.261Z,7.93
2018-12-25T04:40:15.940Z,8.63
2018-12-25T04:46:21.645Z,8.87
2018-12-25T04:52:27.574Z,9.07
2018-12-25T04:58:33.307Z,7.93
2018-12-25T05:04:39.013Z,8.80
2018-12-25T05:10:44.688Z,8.90
2018-12-25T05:16:50.785Z,8.30
2018-12-25T05:22:56.664Z,8.50
2018-12-25T05:29:02.564Z,8.60
2018-12-25T05:35:08.357Z,8.93
2018-12-25T05:41:14.031Z,8.77
2018-12-25T05:47:19.835Z,8.83
2018-12-25T05:53:25.663Z,8.50
2018-12-25T05:59:31.310Z,8.80
2018-12-25T06:05:37.129Z,8.70
2018-12-25T06:11:42.916Z,8.90
2018-12-25T06:17:48.764Z,9.40
2018-12-25T06:23:54.553Z,9.90
2018-12-25T06:30:00.228Z,9.53
2018-12-25T06:36:06.063Z,9.57
2018-12-25T06:42:11.834Z,9.40
2018-12-25T06:48:17.567Z,9.97
2018-12-25T06:54:23.423Z,9.57
2018-12-25T07:00:29.096Z,9.90
2018-12-25T07:06:34.768Z,10.27
2018-12-25T07:12:40.712Z,10.50
2018-12-25T07:18:46.421Z,10.93
2018-12-25T07:24:52.103Z,10.93
2018-12-25T07:30:57.875Z,10.60
2018-12-25T07:37:03.753Z,10.93
2018-12-25T07:43:09.567Z,11.10
2018-12-25T07:49:16.456Z,10.63
2018-12-25T07:55:22.136Z,11.53
2018-12-25T08:01:27.910Z,11.30
2018-12-25T08:07:33.735Z,11.90
2018-12-25T08:13:39.544Z,10.70
2018-12-25T08:19:45.498Z,12.80
2018-12-25T08:25:51.241Z,12.40
2018-12-25T08:31:56.923Z,13.00
2018-12-25T08:38:02.591Z,12.30
2018-12-25T08:44:08.376Z,12.50
2018-12-25T08:50:15.149Z,12.57
2018-12-25T08:56:21.579Z,12.83
2018-12-25T09:02:27.852Z,12.57
2018-12-25T09:08:36.165Z,13.43
2018-12-25T09:14:44.430Z,13.37
2018-12-25T09:20:53.688Z,13.43
2018-12-25T09:26:59.643Z,13.50
2018-12-25T09:33:05.462Z,13.53
2018-12-25T09:39:11.392Z,12.87
2018-12-25T09:45:17.465Z,11.87
2018-12-25T09:51:23.271Z,12.07
2018-12-25T09:57:29.127Z,13.30
2018-12-25T10:03:40.635Z,14.03
2018-12-25T10:09:46.338Z,12.93
2018-12-25T10:15:52.251Z,11.43
2018-12-25T10:22:02.927Z,11.03
2018-12-25T10:28:05.969Z,10.50
2018-12-25T10:34:11.716Z,9.70
2018-12-25T10:40:17.657Z,10.83
2018-12-25T10:46:25.518Z,9.93
2018-12-25T10:52:31.230Z,9.57
2018-12-25T10:58:36.958Z,9.20
2018-12-25T11:04:42.954Z,9.13
2018-12-25T11:10:48.644Z,10.40
2018-12-25T11:16:54.318Z,10.47
2018-12-25T11:23:00.256Z,10.47
2018-12-25T11:29:06.155Z,9.77
2018-12-25T11:35:12.007Z,9.53
2018-12-25T11:41:17.819Z,11.90
2018-12-25T11:47:23.492Z,10.90
2018-12-25T11:53:30.747Z,10.70
2018-12-25T11:59:36.482Z,10.17
2018-12-25T12:05:42.339Z,9.67
2018-12-25T12:11:48.005Z,9.63
2018-12-25T12:17:53.790Z,9.83
2018-12-25T12:23:59.516Z,9.20
2018-12-25T12:30:06.897Z,10.37
2018-12-25T12:36:12.781Z,9.47
2018-12-25T12:42:18.500Z,9.50
2018-12-25T12:48:24.305Z,10.43
2018-12-25T12:54:30.181Z,9.70
2018-12-25T13:00:36.133Z,9.60
2018-12-25T13:06:41.802Z,10.40
2018-12-25T13:12:48.074Z,10.43
2018-12-25T13:18:53.986Z,11.07
2018-12-25T13:24:59.664Z,11.33
2018-12-25T13:31:24.378Z,9.67
2018-12-25T13:37:30.179Z,9.13
2018-12-25T13:43:36.009Z,10.03
2018-12-25T13:49:42.031Z,9.50
2018-12-25T13:55:48.223Z,9.80
2018-12-25T14:01:53.940Z,9.87
2018-12-25T14:07:59.844Z,9.73
2018-12-25T14:14:06.160Z,10.17
2018-12-25T14:20:12.305Z,11.03
2018-12-25T14:26:18.276Z,10.53
2018-12-25T14:32:24.238Z,11.13
2018-12-25T14:38:30.101Z,11.53
2018-12-25T14:44:36.056Z,11.83
2018-12-25T14:50:41.743Z,11.77
2018-12-25T14:56:47.597Z,11.50
2018-12-25T15:02:53.595Z,12.13
2018-12-25T15:08:59.295Z,12.97
2018-12-25T15:15:05.293Z,12.43
2018-12-25T15:21:11.239Z,12.83
2018-12-25T15:27:18.896Z,13.70
2018-12-25T15:33:24.932Z,12.80
2018-12-25T15:45:43.442Z,11.90
2018-12-25T15:51:49.437Z,13.30
2018-12-25T15:57:55.345Z,15.57
2018-12-25T16:04:01.540Z,13.13
2018-12-25T16:10:07.713Z,13.20
2018-12-25T16:16:13.509Z,13.43
2018-12-25T16:22:19.564Z,14.00
2018-12-25T16:28:25.303Z,13.27
2018-12-25T16:34:31.196Z,13.30
2018-12-25T16:40:37.018Z,14.20
2018-12-25T16:46:42.997Z,13.83
2018-12-25T16:52:48.933Z,14.00
2018-12-25T16:58:55.379Z,13.20
2018-12-25T17:05:01.055Z,13.83
2018-12-25T17:11:06.819Z,13.23
2018-12-25T17:17:13.004Z,13.30
2018-12-25T17:23:18.654Z,13.63
2018-12-25T17:29:26.461Z,14.27
2018-12-25T17:35:35.819Z,13.20
2018-12-25T17:41:41.932Z,13.27
2018-12-25T17:47:47.806Z,13.50
2018-12-25T17:53:57.288Z,12.83
2018-12-25T18:00:03.418Z,13.07
2018-12-25T18:06:09.114Z,14.30
2018-12-25T18:12:15.841Z,13.17
2018-12-25T18:18:21.874Z,13.43
2018-12-25T18:24:27.857Z,16.27
2018-12-25T18:30:33.746Z,13.47
2018-12-25T18:36:39.451Z,13.97
2018-12-25T18:42:45.227Z,14.93
2018-12-25T18:48:51.033Z,14.43
2018-12-25T18:54:56.776Z,15.07
2018-12-25T19:01:02.607Z,15.67
2018-12-25T19:07:08.349Z,14.67
2018-12-25T19:13:14.241Z,15.70
2018-12-25T19:19:20.088Z,15.63
2018-12-25T19:25:26.084Z,14.83
2018-12-25T19:31:31.898Z,16.37
2018-12-25T19:37:37.596Z,15.40
2018-12-25T19:43:43.281Z,16.03
2018-12-25T19:49:48.933Z,16.73
2018-12-25T19:55:54.773Z,16.70
2018-12-25T20:02:00.523Z,17.57
2018-12-25T20:08:53.936Z,17.90
2018-12-25T20:15:31.902Z,18.17
2018-12-25T20:22:46.437Z,17.10
2018-12-25T20:30:06.865Z,18.43
2018-12-25T20:37:26.649Z,18.53
2018-12-25T20:44:29.670Z,18.27
2018-12-25T20:51:21.358Z,18.90
2018-12-25T20:58:35.180Z,19.93
2018-12-25T21:05:35.267Z,20.30
2018-12-25T21:12:24.255Z,20.73
2018-12-25T21:19:36.915Z,19.90
2018-12-25T21:26:35.615Z,19.97
2018-12-25T21:32:45.423Z,20.27
2018-12-25T21:38:51.288Z,21.93
2018-12-25T21:44:57.687Z,21.83
2018-12-25T21:51:03.755Z,20.60
2018-12-25T21:57:09.946Z,22.07
2018-12-25T22:03:15.728Z,21.50
2018-12-25T22:09:21.536Z,24.57
2018-12-25T22:15:27.277Z,22.87
2018-12-25T22:21:33.091Z,23.93
2018-12-25T22:27:38.871Z,22.47
2018-12-25T22:33:44.705Z,21.97
2018-12-25T22:39:50.465Z,21.07
2018-12-25T22:45:56.423Z,22.17
2018-12-25T22:52:08.016Z,23.87
2018-12-25T22:58:15.118Z,24.30
2018-12-25T23:04:28.307Z,23.30
2018-12-25T23:10:34.347Z,24.43
2018-12-25T23:16:40.430Z,24.47
2018-12-25T23:22:46.420Z,24.70
2018-12-25T23:28:52.349Z,24.83
2018-12-25T23:35:01.831Z,23.37
2018-12-25T23:41:16.519Z,25.50
2018-12-25T23:47:22.283Z,24.97
2018-12-25T23:53:28.425Z,24.43
2018-12-25T23:59:34.126Z,24.00
